Rocky Ridge, Ohio
Current Conditions -  °F | °C
As of 8:53 PM on Sunday 21 Dec 2014 (Local Time) from KTDZ Reporting Station
Clear Clear  
Wind Chill: 24°   Ceiling: Unl
Heat Index: 29°   Visibility: 7mi
Dew Point: 22°   Wind: 5mph
Humidity: 75%   Direction: 80°E
Pressure: 30.22"   Gusts: NA
Location:  41.53°N, 83.21°W
Report Text: KTDZ 220153Z AUTO 08004KT 7SM CLR M02/M06 A3022 RMK AO2 SLP241 T10171056 TSNO
Loading
Personal Weather Stations






























Interactive Weather Map New forecast layout! Learn more

10-Day Weather Forecast

Advertisements
Track Severe Weather on mobile